Time;durP1;ratioP1;P1;durP2;ratioP2;P2;SDS_P1;SDS_P2;PMS_P1;PMS_P2;Temp;Humidity;BMP_temperature;BMP_pressure;BME280_temperature;BME280_humidity;BME280_pressure;Samples;Min_cycle;Max_cycle;Signal;HPM_P1;HPM_P2
2022/07/26 00:01:12;;;;;;;13.38;2.97;;;18.60;99.90;;;;;;5019056;28;20045;-88
2022/07/26 00:03:37;;;;;;;11.50;2.75;;;18.50;99.90;;;;;;5019257;28;20096;-87
2022/07/26 00:06:03;;;;;;;11.05;3.72;;;18.60;99.90;;;;;;5018175;28;20073;-89
2022/07/26 00:08:28;;;;;;;10.77;2.70;;;18.50;99.90;;;;;;5037786;28;20038;-88
2022/07/26 00:10:54;;;;;;;10.63;3.95;;;18.50;99.90;;;;;;5021717;28;20069;-88
2022/07/26 00:13:20;;;;;;;11.68;3.08;;;18.60;99.90;;;;;;5038262;28;20069;-88
2022/07/26 00:15:46;;;;;;;16.10;3.20;;;18.50;99.90;;;;;;5026579;28;20042;-88
2022/07/26 00:18:13;;;;;;;11.20;3.45;;;18.60;99.90;;;;;;5014901;28;20096;-88
2022/07/26 00:20:39;;;;;;;10.60;3.17;;;18.50;99.90;;;;;;4998554;28;20088;-88
2022/07/26 00:23:05;;;;;;;14.00;3.20;;;18.60;99.90;;;;;;5016060;28;20378;-89
2022/07/26 00:25:30;;;;;;;20.00;3.25;;;18.50;99.90;;;;;;5015416;28;20060;-89
2022/07/26 00:27:56;;;;;;;14.13;3.05;;;18.50;99.90;;;;;;5013777;28;20485;-89
2022/07/26 00:30:22;;;;;;;14.05;3.88;;;18.50;99.90;;;;;;5014657;28;20045;-88
2022/07/26 00:32:48;;;;;;;13.65;3.17;;;18.50;99.90;;;;;;5014548;28;20546;-90
2022/07/26 00:35:13;;;;;;;11.32;3.10;;;18.40;99.90;;;;;;4998289;28;20355;-89
2022/07/26 00:37:39;;;;;;;17.52;3.58;;;18.40;99.90;;;;;;5015927;28;20120;-89
2022/07/26 00:40:05;;;;;;;15.45;3.78;;;18.40;99.90;;;;;;4984094;28;20053;-89
2022/07/26 00:42:31;;;;;;;17.60;3.40;;;18.30;99.90;;;;;;4998591;28;20046;-87
2022/07/26 00:44:56;;;;;;;15.93;3.20;;;18.30;99.90;;;;;;5014096;28;20532;-86
2022/07/26 00:47:22;;;;;;;13.50;3.17;;;18.20;99.90;;;;;;5013724;28;20061;-88
2022/07/26 00:49:48;;;;;;;19.83;4.50;;;18.20;99.90;;;;;;5015447;28;20041;-87
2022/07/26 00:52:14;;;;;;;14.73;3.00;;;18.20;99.90;;;;;;5013686;28;20064;-87
2022/07/26 00:54:42;;;;;;;14.50;3.20;;;18.10;99.90;;;;;;5017022;28;20045;-88
2022/07/26 00:57:08;;;;;;;12.85;3.25;;;18.20;99.90;;;;;;5027394;28;20045;-88
2022/07/26 00:59:34;;;;;;;14.27;3.38;;;18.10;99.90;;;;;;5033417;28;20044;-87
2022/07/26 01:02:00;;;;;;;16.17;3.60;;;18.20;99.90;;;;;;5024810;28;20042;-88
2022/07/26 01:04:26;;;;;;;16.52;3.72;;;18.20;99.90;;;;;;5025595;28;20048;-89
2022/07/26 01:06:52;;;;;;;14.57;3.13;;;18.20;99.90;;;;;;5023062;28;20034;-87
2022/07/26 01:09:18;;;;;;;16.55;3.35;;;18.20;99.90;;;;;;5021728;28;20104;-87
2022/07/26 01:11:44;;;;;;;17.25;4.30;;;18.20;99.90;;;;;;5022010;28;20046;-89
2022/07/26 01:14:10;;;;;;;15.50;3.30;;;18.20;99.90;;;;;;5023073;28;20231;-88
2022/07/26 01:16:35;;;;;;;16.90;3.97;;;18.20;99.90;;;;;;5023016;28;20096;-87
2022/07/26 01:19:01;;;;;;;13.90;3.42;;;18.20;99.90;;;;;;5020952;28;20050;-88
2022/07/26 01:21:28;;;;;;;18.67;3.80;;;18.10;99.90;;;;;;5022124;28;20045;-88
2022/07/26 01:23:54;;;;;;;14.27;3.40;;;18.10;99.90;;;;;;5027981;28;20037;-88
2022/07/26 01:26:19;;;;;;;13.85;3.53;;;18.10;99.90;;;;;;5035862;28;20072;-87
2022/07/26 01:28:48;;;;;;;15.40;3.90;;;18.00;99.90;;;;;;5036339;28;20034;-91
2022/07/26 01:31:14;;;;;;;18.33;3.65;;;18.00;99.90;;;;;;5037152;28;20046;-88
2022/07/26 01:33:39;;;;;;;11.95;3.05;;;18.00;99.90;;;;;;5037189;28;20041;-88
2022/07/26 01:36:05;;;;;;;16.40;3.50;;;18.00;99.90;;;;;;5036867;28;20045;-90
2022/07/26 01:38:31;;;;;;;10.65;3.30;;;18.00;99.90;;;;;;5015344;28;20046;-87
2022/07/26 01:40:56;;;;;;;12.77;3.33;;;18.00;99.90;;;;;;5020790;28;20038;-87
2022/07/26 01:43:22;;;;;;;12.80;3.45;;;19.20;99.90;;;;;;5022302;28;20037;-87
2022/07/26 01:45:48;;;;;;;16.15;3.95;;;18.00;99.90;;;;;;5025669;28;20034;-88
2022/07/26 01:48:13;;;;;;;17.70;4.13;;;18.10;99.90;;;;;;5027373;28;20049;-88
2022/07/26 01:50:39;;;;;;;12.15;3.05;;;18.00;99.90;;;;;;5026329;28;20046;-87
2022/07/26 01:53:05;;;;;;;14.52;3.42;;;18.10;99.90;;;;;;5021442;28;20058;-88
2022/07/26 01:55:30;;;;;;;11.40;3.10;;;18.10;99.90;;;;;;5024853;28;20038;-88
2022/07/26 01:57:56;;;;;;;14.43;3.83;;;18.10;99.90;;;;;;5020599;28;20050;-87
2022/07/26 02:00:22;;;;;;;15.57;4.80;;;18.10;99.90;;;;;;5008431;28;20377;-87
2022/07/26 02:02:48;;;;;;;13.15;3.08;;;18.20;99.90;;;;;;5024851;28;20347;-87
2022/07/26 02:05:13;;;;;;;9.63;2.90;;;18.20;99.90;;;;;;5017512;28;20478;-89
2022/07/26 02:07:41;;;;;;;14.05;3.13;;;18.20;99.90;;;;;;5022529;28;20056;-88
2022/07/26 02:10:08;;;;;;;13.80;2.97;;;18.10;99.90;;;;;;5019926;28;20037;-87
2022/07/26 02:12:34;;;;;;;12.40;3.15;;;18.10;99.90;;;;;;5004623;28;20076;-88
2022/07/26 02:14:59;;;;;;;12.20;2.92;;;18.10;99.90;;;;;;5020445;28;20041;-88
2022/07/26 02:17:25;;;;;;;9.80;3.65;;;18.00;99.90;;;;;;5020817;28;20038;-88
2022/07/26 02:19:51;;;;;;;13.57;3.10;;;18.10;99.90;;;;;;5017826;28;20058;-88
2022/07/26 02:22:18;;;;;;;12.35;3.00;;;18.00;99.90;;;;;;5018527;28;20085;-88
2022/07/26 02:24:45;;;;;;;13.32;2.80;;;18.00;99.90;;;;;;5004372;28;20049;-88
2022/07/26 02:27:11;;;;;;;8.73;3.08;;;18.10;99.90;;;;;;5017516;28;20038;-88
2022/07/26 02:29:36;;;;;;;9.23;3.67;;;18.00;99.90;;;;;;5001780;28;20045;-88
2022/07/26 02:32:02;;;;;;;7.93;2.70;;;18.00;99.90;;;;;;5022150;28;20048;-89
2022/07/26 02:34:28;;;;;;;12.55;3.70;;;18.00;99.90;;;;;;5021791;28;20122;-88
2022/07/26 02:36:53;;;;;;;13.23;3.25;;;18.00;99.90;;;;;;5021074;28;20033;-87
2022/07/26 02:39:19;;;;;;;10.48;2.97;;;18.00;99.90;;;;;;5020975;28;20121;-88
2022/07/26 02:41:45;;;;;;;13.63;3.20;;;18.00;99.90;;;;;;5021709;28;20045;-87
2022/07/26 02:44:10;;;;;;;8.00;2.38;;;18.00;99.90;;;;;;5018770;28;20095;-87
2022/07/26 02:46:36;;;;;;;14.32;3.15;;;17.90;99.90;;;;;;5022625;28;20088;-87
2022/07/26 02:49:02;;;;;;;10.45;3.83;;;18.00;99.90;;;;;;5021709;28;20041;-87
2022/07/26 02:51:28;;;;;;;8.27;2.80;;;17.90;99.90;;;;;;5023345;28;20034;-87
2022/07/26 02:53:54;;;;;;;9.05;2.60;;;17.90;99.90;;;;;;5038533;28;20030;-87
2022/07/26 02:56:19;;;;;;;11.48;2.78;;;17.90;99.90;;;;;;5039541;28;20046;-91
2022/07/26 02:58:45;;;;;;;8.90;2.67;;;17.90;99.90;;;;;;5039228;28;20037;-88
2022/07/26 03:01:11;;;;;;;7.57;2.78;;;17.90;99.90;;;;;;5022974;28;20090;-89
2022/07/26 03:03:37;;;;;;;9.52;2.67;;;17.90;99.90;;;;;;5023030;28;20054;-87
2022/07/26 03:06:02;;;;;;;5.45;2.20;;;17.90;99.90;;;;;;5030650;28;20354;-86
2022/07/26 03:08:29;;;;;;;7.95;2.72;;;17.90;99.90;;;;;;5039259;28;20105;-88
2022/07/26 03:10:54;;;;;;;6.53;2.42;;;17.90;99.90;;;;;;5036491;28;20038;-87
2022/07/26 03:13:20;;;;;;;4.68;2.25;;;17.90;99.90;;;;;;5035858;28;20062;-88
2022/07/26 03:15:47;;;;;;;5.28;2.60;;;17.90;99.90;;;;;;5033619;28;20022;-87
2022/07/26 03:18:13;;;;;;;5.40;2.70;;;17.90;99.90;;;;;;5034717;28;20077;-84
2022/07/26 03:20:39;;;;;;;4.75;2.85;;;17.90;99.90;;;;;;5033282;28;20054;-85
2022/07/26 03:23:04;;;;;;;5.60;2.78;;;17.70;99.90;;;;;;5034104;28;20034;-85
2022/07/26 03:25:30;;;;;;;4.30;2.72;;;17.60;99.90;;;;;;5031515;28;20131;-88
2022/07/26 03:27:56;;;;;;;6.93;2.92;;;17.50;99.90;;;;;;5034018;28;20041;-87
2022/07/26 03:30:22;;;;;;;6.05;2.60;;;17.40;99.90;;;;;;5017645;28;20133;-86
2022/07/26 03:32:48;;;;;;;5.65;2.40;;;17.30;99.90;;;;;;5011608;28;20509;-87
2022/07/26 03:35:13;;;;;;;6.30;2.70;;;17.20;99.90;;;;;;5024255;28;20042;-87
2022/07/26 03:37:39;;;;;;;5.72;2.30;;;17.10;99.90;;;;;;5024938;28;20046;-86
2022/07/26 03:40:07;;;;;;;6.35;2.60;;;17.10;99.90;;;;;;5026403;28;20057;-86
2022/07/26 03:42:33;;;;;;;5.22;2.47;;;17.00;99.90;;;;;;5026159;28;20065;-86
2022/07/26 03:44:59;;;;;;;2.95;2.00;;;17.00;99.90;;;;;;5028425;28;20050;-86
2022/07/26 03:47:25;;;;;;;4.15;2.58;;;17.00;99.90;;;;;;5024354;28;20053;-85
2022/07/26 03:49:50;;;;;;;6.03;2.55;;;16.90;99.90;;;;;;5032224;28;20064;-87
2022/07/26 03:52:16;;;;;;;4.95;2.40;;;16.90;99.90;;;;;;5021660;28;20068;-86
2022/07/26 03:54:41;;;;;;;5.18;2.30;;;16.90;99.90;;;;;;5018129;28;20363;-86
2022/07/26 03:57:07;;;;;;;7.75;2.47;;;16.90;99.90;;;;;;5017525;28;20048;-86
2022/07/26 03:59:33;;;;;;;6.22;2.90;;;16.90;99.90;;;;;;5005306;28;20141;-87
2022/07/26 04:01:58;;;;;;;5.80;2.30;;;16.80;99.90;;;;;;5019975;28;20124;-86
2022/07/26 04:04:24;;;;;;;4.90;3.10;;;16.80;99.90;;;;;;4985063;28;20038;-86
2022/07/26 04:06:50;;;;;;;5.50;2.20;;;16.80;99.90;;;;;;5017172;28;20474;-86
2022/07/26 04:09:15;;;;;;;7.13;3.28;;;16.70;99.90;;;;;;5015465;28;20438;-91
2022/07/26 04:11:42;;;;;;;9.25;2.97;;;16.70;99.90;;;;;;5018063;28;20069;-87
2022/07/26 04:14:08;;;;;;;4.45;2.90;;;16.70;99.90;;;;;;5022023;28;20040;-86
2022/07/26 04:16:33;;;;;;;7.70;3.05;;;16.70;99.90;;;;;;5020654;28;20053;-86
2022/07/26 04:18:59;;;;;;;6.05;2.90;;;16.70;99.90;;;;;;5030024;28;20084;-86
2022/07/26 04:21:25;;;;;;;8.32;2.80;;;16.80;99.90;;;;;;5036408;28;20033;-88
2022/07/26 04:23:50;;;;;;;9.85;2.47;;;16.80;99.90;;;;;;5036551;28;20041;-86
2022/07/26 04:26:16;;;;;;;7.20;2.55;;;16.80;99.90;;;;;;5020920;28;20045;-87
2022/07/26 04:28:42;;;;;;;5.93;2.70;;;16.90;99.90;;;;;;5038324;28;20081;-86
2022/07/26 04:31:07;;;;;;;8.52;2.70;;;17.00;99.90;;;;;;5021991;28;20028;-86
2022/07/26 04:33:33;;;;;;;8.45;2.60;;;17.10;99.90;;;;;;5021417;28;20057;-87
2022/07/26 04:35:59;;;;;;;5.25;2.35;;;17.20;99.90;;;;;;5022548;28;20030;-87
2022/07/26 04:38:25;;;;;;;7.78;2.50;;;17.20;99.90;;;;;;4998306;28;20092;-86
2022/07/26 04:40:52;;;;;;;6.65;2.42;;;17.30;99.90;;;;;;4998234;28;20557;-86
2022/07/26 04:43:18;;;;;;;4.25;2.20;;;17.40;99.90;;;;;;5014963;28;20462;-86
2022/07/26 04:45:47;;;;;;;7.50;2.10;;;17.40;99.90;;;;;;4997983;28;20052;-86
2022/07/26 04:48:13;;;;;;;6.38;2.40;;;17.70;99.90;;;;;;5013923;28;20388;-86
2022/07/26 04:50:39;;;;;;;4.18;1.80;;;17.70;99.90;;;;;;5014248;28;20350;-87
2022/07/26 04:53:05;;;;;;;5.90;2.15;;;18.00;99.90;;;;;;5014796;28;20049;-86
2022/07/26 04:55:30;;;;;;;4.53;2.03;;;17.90;99.90;;;;;;4997592;28;20060;-86
2022/07/26 04:57:56;;;;;;;4.75;2.00;;;18.00;99.90;;;;;;5014109;28;20053;-86
2022/07/26 05:00:25;;;;;;;5.43;2.65;;;18.00;99.90;;;;;;5014259;28;20084;-89
2022/07/26 05:02:55;;;;;;;5.97;2.20;;;18.20;99.90;;;;;;5014118;28;20124;-86
2022/07/26 05:05:22;;;;;;;4.63;1.80;;;18.10;99.90;;;;;;5013929;28;20152;-86
2022/07/26 05:07:49;;;;;;;6.13;1.73;;;18.10;99.90;;;;;;5015183;28;20060;-86
2022/07/26 05:10:15;;;;;;;7.57;1.88;;;18.10;99.90;;;;;;4997720;28;20132;-87
2022/07/26 05:12:41;;;;;;;4.63;1.70;;;18.40;99.90;;;;;;5013057;28;20094;-86
2022/07/26 05:15:07;;;;;;;8.07;2.13;;;18.40;99.90;;;;;;4997455;28;20099;-86
2022/07/26 05:17:33;;;;;;;4.20;1.80;;;18.00;99.90;;;;;;5034338;28;20040;-87
2022/07/26 05:19:58;;;;;;;5.95;1.30;;;17.90;99.90;;;;;;5029187;28;20053;-87
2022/07/26 05:22:24;;;;;;;6.53;1.50;;;17.70;99.90;;;;;;5026763;28;20049;-90
2022/07/26 05:24:51;;;;;;;3.75;1.40;;;17.60;99.90;;;;;;5008533;28;20050;-86
2022/07/26 05:27:17;;;;;;;4.20;1.30;;;17.40;99.90;;;;;;5010729;28;20038;-87
2022/07/26 05:29:44;;;;;;;4.82;1.73;;;17.40;99.90;;;;;;5010294;28;20045;-86
2022/07/26 05:32:10;;;;;;;3.70;1.25;;;17.30;99.90;;;;;;5023221;28;20129;-85
2022/07/26 05:34:36;;;;;;;4.88;1.73;;;17.30;99.90;;;;;;5022232;28;20069;-87
2022/07/26 05:37:01;;;;;;;5.13;1.25;;;17.30;99.90;;;;;;5020575;28;20038;-86
2022/07/26 05:39:27;;;;;;;3.63;1.30;;;17.20;99.90;;;;;;5026177;28;20042;-91
2022/07/26 05:41:53;;;;;;;7.78;1.92;;;17.20;99.90;;;;;;5033698;28;20073;-87
2022/07/26 05:44:18;;;;;;;5.80;1.20;;;17.30;99.90;;;;;;5034390;28;20030;-88
2022/07/26 05:46:44;;;;;;;5.75;1.50;;;17.30;99.90;;;;;;5037570;28;20073;-88
2022/07/26 05:49:10;;;;;;;2.85;0.95;;;17.30;99.90;;;;;;5005843;28;20053;-86
2022/07/26 05:51:35;;;;;;;6.05;1.40;;;17.30;99.90;;;;;;5006239;28;20045;-86
2022/07/26 05:54:01;;;;;;;4.00;1.42;;;17.30;99.90;;;;;;5024145;28;20061;-86
2022/07/26 05:56:27;;;;;;;4.18;1.15;;;17.30;99.90;;;;;;5027990;28;20042;-86
2022/07/26 05:58:52;;;;;;;3.08;1.10;;;17.30;99.90;;;;;;5037600;28;20037;-87
2022/07/26 06:01:18;;;;;;;3.53;1.20;;;17.40;99.90;;;;;;5037110;28;20851;-86
2022/07/26 06:03:43;;;;;;;3.20;0.90;;;17.50;99.90;;;;;;5035549;28;20049;-87
2022/07/26 06:06:10;;;;;;;3.50;0.90;;;17.40;99.90;;;;;;5020300;28;20081;-86
2022/07/26 06:08:36;;;;;;;7.28;0.98;;;17.40;99.90;;;;;;5018754;28;20088;-87
2022/07/26 06:11:01;;;;;;;3.70;1.38;;;17.40;99.90;;;;;;5017039;28;20042;-87
2022/07/26 06:13:27;;;;;;;3.13;0.98;;;17.50;99.90;;;;;;5018019;28;20556;-87
2022/07/26 06:15:54;;;;;;;4.07;1.17;;;17.20;99.90;;;;;;5020407;28;20124;-86
2022/07/26 06:18:20;;;;;;;3.47;0.80;;;17.10;99.90;;;;;;5017476;28;20459;-88
2022/07/26 06:20:46;;;;;;;2.10;0.88;;;16.90;99.90;;;;;;5017400;28;20052;-86
2022/07/26 06:23:12;;;;;;;2.75;0.98;;;16.90;99.90;;;;;;5020029;28;20045;-86
2022/07/26 06:25:38;;;;;;;3.47;0.90;;;16.80;99.90;;;;;;5015698;28;20049;-86
2022/07/26 06:28:07;;;;;;;3.72;1.05;;;16.80;99.90;;;;;;5008568;28;20133;-87
2022/07/26 06:30:36;;;;;;;3.55;1.35;;;16.90;99.90;;;;;;5022004;28;20048;-90
2022/07/26 06:33:02;;;;;;;5.57;1.00;;;17.20;99.90;;;;;;5024999;28;20073;-88
2022/07/26 06:35:29;;;;;;;6.65;1.15;;;17.60;99.90;;;;;;4986881;28;20053;-87
2022/07/26 06:37:55;;;;;;;3.70;0.90;;;17.70;99.90;;;;;;5019090;28;20093;-87
2022/07/26 06:40:23;;;;;;;4.63;0.90;;;17.80;99.90;;;;;;5022664;28;20041;-86
2022/07/26 06:42:48;;;;;;;1.17;0.73;;;18.30;99.90;;;;;;5005584;28;20042;-89
2022/07/26 06:45:14;;;;;;;2.38;0.88;;;18.30;99.90;;;;;;5022145;28;20041;-87
2022/07/26 06:47:40;;;;;;;3.03;1.05;;;18.80;99.90;;;;;;5022720;28;20042;-86
2022/07/26 06:50:06;;;;;;;2.97;0.80;;;19.10;99.90;;;;;;5023475;28;20077;-86
2022/07/26 06:52:32;;;;;;;3.33;0.70;;;19.20;99.90;;;;;;5020069;28;20389;-86
2022/07/26 06:54:58;;;;;;;4.45;0.98;;;19.50;99.90;;;;;;5021935;28;20041;-87
2022/07/26 06:57:24;;;;;;;3.22;0.70;;;19.20;99.90;;;;;;5019697;28;20171;-86
2022/07/26 06:59:50;;;;;;;1.92;0.80;;;18.80;99.90;;;;;;5017520;28;20053;-87
2022/07/26 07:02:16;;;;;;;4.35;0.80;;;18.60;99.90;;;;;;5019520;28;20050;-86
2022/07/26 07:04:41;;;;;;;2.08;0.75;;;18.40;99.90;;;;;;5035103;28;20046;-88
2022/07/26 07:07:07;;;;;;;5.03;0.80;;;18.00;99.90;;;;;;5020420;28;20037;-87
2022/07/26 07:09:33;;;;;;;5.43;0.80;;;17.90;99.90;;;;;;5040205;28;20029;-86
2022/07/26 07:12:01;;;;;;;4.40;0.80;;;17.90;99.90;;;;;;5024653;28;20052;-86
2022/07/26 07:14:27;;;;;;;2.65;0.85;;;17.70;99.90;;;;;;5004484;28;20092;-87
2022/07/26 07:16:55;;;;;;;3.28;0.80;;;17.70;99.90;;;;;;5018087;28;20052;-86
2022/07/26 07:19:24;;;;;;;5.10;0.85;;;17.70;99.90;;;;;;5015883;28;20049;-85
2022/07/26 07:21:50;;;;;;;4.63;1.00;;;17.40;99.90;;;;;;5020369;28;20560;-85
2022/07/26 07:24:15;;;;;;;3.38;0.88;;;17.30;99.90;;;;;;5017427;28;20050;-86
2022/07/26 07:26:41;;;;;;;10.05;1.25;;;17.30;99.90;;;;;;5034970;28;20029;-92
2022/07/26 07:29:10;;;;;;;4.47;1.02;;;17.20;99.90;;;;;;5039250;28;20042;-85
2022/07/26 07:31:36;;;;;;;3.45;0.90;;;17.30;99.90;;;;;;5023470;28;20042;-86
2022/07/26 07:34:02;;;;;;;8.70;1.08;;;17.60;99.90;;;;;;5039365;28;20026;-87
2022/07/26 07:36:28;;;;;;;2.03;0.80;;;18.30;99.90;;;;;;5011263;28;20065;-87
2022/07/26 07:38:54;;;;;;;1.35;0.60;;;19.00;99.90;;;;;;5020309;28;20386;-86
2022/07/26 07:41:20;;;;;;;4.32;0.82;;;19.30;99.90;;;;;;5019611;28;20066;-86
2022/07/26 07:43:45;;;;;;;4.95;0.80;;;19.80;99.90;;;;;;5023600;28;20038;-86
2022/07/26 07:46:11;;;;;;;3.50;0.57;;;19.70;99.90;;;;;;5024849;28;20038;-89
2022/07/26 07:48:39;;;;;;;2.75;0.73;;;19.70;99.90;;;;;;5022988;28;20347;-86
2022/07/26 07:51:06;;;;;;;1.77;0.80;;;19.70;99.90;;;;;;5019483;28;20050;-85
2022/07/26 07:53:31;;;;;;;2.28;0.70;;;19.50;99.90;;;;;;5020318;28;20045;-85
2022/07/26 07:55:57;;;;;;;2.05;0.70;;;19.60;99.90;;;;;;5023721;28;20034;-85
2022/07/26 07:58:22;;;;;;;4.07;0.85;;;19.60;99.90;;;;;;5008005;28;20046;-85
2022/07/26 08:00:48;;;;;;;4.03;0.68;;;19.70;99.90;;;;;;5024130;28;20037;-84
2022/07/26 08:03:14;;;;;;;2.45;0.80;;;19.80;99.90;;;;;;5019638;28;20073;-84
2022/07/26 08:05:40;;;;;;;6.35;0.80;;;19.70;99.90;;;;;;5017911;28;20042;-85
2022/07/26 08:08:06;;;;;;;2.85;1.00;;;19.20;99.90;;;;;;5020688;28;20045;-86
2022/07/26 08:10:31;;;;;;;5.63;0.80;;;19.10;99.90;;;;;;5021084;28;20045;-83
2022/07/26 08:12:57;;;;;;;2.60;0.82;;;19.10;99.90;;;;;;5019988;28;20085;-83
2022/07/26 08:15:25;;;;;;;3.28;0.98;;;19.10;99.90;;;;;;5021075;28;20038;-83
2022/07/26 08:17:52;;;;;;;4.68;0.80;;;19.40;99.90;;;;;;5023385;28;20054;-84
2022/07/26 08:20:19;;;;;;;2.95;0.70;;;19.70;99.90;;;;;;5022859;28;20050;-83
2022/07/26 08:22:45;;;;;;;5.40;1.05;;;20.10;99.90;;;;;;5020921;28;20045;-83
2022/07/26 08:25:10;;;;;;;4.82;1.15;;;20.40;99.90;;;;;;5019011;28;20098;-85
2022/07/26 08:27:36;;;;;;;6.75;0.90;;;20.80;99.90;;;;;;5020447;28;20093;-84
2022/07/26 08:30:03;;;;;;;2.83;0.73;;;21.00;99.90;;;;;;5023925;28;20041;-80
2022/07/26 08:32:28;;;;;;;4.15;0.80;;;21.00;99.90;;;;;;5036137;28;20058;-82
2022/07/26 08:34:54;;;;;;;2.63;0.93;;;21.10;99.90;;;;;;5022824;28;20516;-84
2022/07/26 08:37:19;;;;;;;4.63;1.05;;;20.90;99.90;;;;;;5017023;28;20056;-85
2022/07/26 08:39:48;;;;;;;4.40;1.00;;;19.70;99.90;;;;;;4984212;28;20081;-85
2022/07/26 08:42:15;;;;;;;4.50;0.90;;;19.90;99.90;;;;;;5018813;28;20077;-85
2022/07/26 08:44:45;;;;;;;4.55;0.98;;;19.80;99.90;;;;;;5002790;28;20489;-82
2022/07/26 08:47:13;;;;;;;3.40;0.85;;;19.40;99.90;;;;;;5016104;28;20355;-84
2022/07/26 08:49:39;;;;;;;4.75;0.90;;;19.40;99.90;;;;;;5013643;28;20045;-83
2022/07/26 08:52:05;;;;;;;5.93;1.08;;;20.30;99.90;;;;;;5013965;28;20056;-83
2022/07/26 08:54:30;;;;;;;3.03;1.10;;;21.10;99.90;;;;;;5019148;28;20054;-83
2022/07/26 08:56:57;;;;;;;4.35;1.02;;;21.60;99.90;;;;;;5037558;28;20037;-92
2022/07/26 08:59:22;;;;;;;4.72;1.05;;;22.20;99.90;;;;;;5037912;28;20037;-83
2022/07/26 09:01:56;;;;;;;3.65;0.90;;;22.50;99.90;;;;;;5035250;28;20042;-83
2022/07/26 09:04:24;;;;;;;3.47;0.82;;;22.20;99.90;;;;;;5017945;28;20085;-83
2022/07/26 09:07:10;;;;;;;7.47;1.63;;;21.90;99.90;;;;;;5016706;28;20465;-84
2022/07/26 09:09:38;;;;;;;4.40;1.00;;;21.30;99.90;;;;;;4998306;28;20104;-83
2022/07/26 09:12:18;;;;;;;4.25;1.13;;;20.60;99.90;;;;;;5013663;28;20057;-82
2022/07/26 09:14:45;;;;;;;7.15;1.20;;;20.50;99.90;;;;;;5012540;28;20601;-83
2022/07/26 09:17:11;;;;;;;3.72;1.00;;;20.40;99.90;;;;;;5012842;28;20050;-83
2022/07/26 09:19:37;;;;;;;4.03;0.98;;;20.20;99.90;;;;;;5014707;28;20053;-83
2022/07/26 09:22:13;;;;;;;4.70;0.73;;;20.70;99.90;;;;;;5014339;28;20050;-83
2022/07/26 09:24:46;;;;;;;3.67;1.00;;;20.80;99.90;;;;;;5013346;28;20053;-83
2022/07/26 09:27:14;;;;;;;2.17;1.02;;;20.80;99.90;;;;;;5012750;28;20046;-83
2022/07/26 09:29:53;;;;;;;4.65;0.90;;;20.80;99.90;;;;;;5013505;28;20151;-83
2022/07/26 09:32:24;;;;;;;5.45;1.23;;;20.60;99.90;;;;;;4997772;28;20050;-83
2022/07/26 09:34:55;;;;;;;5.15;1.20;;;20.20;99.90;;;;;;5016667;28;20056;-83
2022/07/26 09:37:42;;;;;;;2.10;0.93;;;20.00;99.90;;;;;;5017691;28;20057;-83
2022/07/26 09:40:12;;;;;;;3.30;1.10;;;20.20;99.90;;;;;;5022465;28;20042;-83
2022/07/26 09:42:51;;;;;;;6.15;1.20;;;20.00;99.90;;;;;;5022446;28;20053;-84
2022/07/26 09:45:17;;;;;;;4.03;1.38;;;19.80;99.90;;;;;;5006554;28;20104;-84
2022/07/26 09:47:43;;;;;;;4.22;0.90;;;19.90;99.90;;;;;;5023091;28;20046;-86
2022/07/26 09:50:20;;;;;;;4.45;1.27;;;20.20;99.90;;;;;;5011087;28;20045;-84
2022/07/26 09:53:10;;;;;;;4.72;1.50;;;20.40;99.90;;;;;;5030322;28;20045;-85
2022/07/26 09:55:56;;;;;;;4.15;1.02;;;20.30;99.90;;;;;;5020647;28;20062;-87
2022/07/26 09:58:23;;;;;;;5.78;1.25;;;20.40;99.90;;;;;;5030479;28;20073;-83
2022/07/26 10:00:48;;;;;;;7.30;1.15;;;20.10;99.90;;;;;;5028052;28;20524;-83
2022/07/26 10:03:14;;;;;;;3.90;1.20;;;19.90;99.90;;;;;;5023456;28;20046;-82
2022/07/26 10:05:40;;;;;;;4.97;1.45;;;19.70;99.90;;;;;;5023463;28;20434;-82
2022/07/26 10:08:06;;;;;;;5.85;1.42;;;19.70;99.90;;;;;;5024283;28;20060;-83
2022/07/26 10:11:05;;;;;;;8.10;1.65;;;19.40;99.90;;;;;;5028237;28;20081;-82
2022/07/26 10:13:31;;;;;;;8.15;1.55;;;19.80;99.90;;;;;;5012771;28;20065;-83
2022/07/26 10:15:56;;;;;;;7.93;1.45;;;20.60;99.90;;;;;;5025477;28;20478;-84
2022/07/26 10:18:37;;;;;;;6.00;1.33;;;21.70;99.90;;;;;;5022480;28;20060;-84
2022/07/26 10:21:23;;;;;;;5.28;1.40;;;22.20;99.90;;;;;;5020463;28;20046;-90
2022/07/26 10:23:59;;;;;;;7.03;1.60;;;21.50;99.90;;;;;;5023958;28;20070;-84
2022/07/26 10:26:31;;;;;;;4.28;1.27;;;21.00;99.90;;;;;;5040113;28;20053;-86
2022/07/26 10:29:16;;;;;;;7.05;1.50;;;21.00;99.90;;;;;;5040982;28;20046;-84
2022/07/26 10:31:45;;;;;;;;;;;20.80;99.90;;;;;;5039579;28;20026;-86
2022/07/26 10:34:11;;;;;;;6.03;1.70;;;20.80;99.90;;;;;;5028066;28;19925;-86
2022/07/26 10:36:38;;;;;;;8.93;1.73;;;22.00;99.90;;;;;;5025021;28;20050;-86
2022/07/26 10:39:11;;;;;;;9.93;2.10;;;21.50;99.90;;;;;;5026790;28;20053;-87
2022/07/26 10:41:47;;;;;;;6.80;1.85;;;21.50;99.90;;;;;;5024143;28;20089;-85
2022/07/26 10:44:14;;;;;;;11.15;2.10;;;21.10;99.90;;;;;;4991071;28;20046;-86
2022/07/26 10:47:03;;;;;;;11.38;1.95;;;20.70;99.90;;;;;;5006994;28;20047;-86
2022/07/26 10:49:40;;;;;;;10.15;2.05;;;20.40;99.90;;;;;;5006989;28;20054;-86
2022/07/26 10:52:10;;;;;;;12.52;2.10;;;20.60;99.90;;;;;;5007336;28;20050;-86
2022/07/26 10:54:58;;;;;;;8.48;2.55;;;20.30;99.90;;;;;;4999721;28;20466;-86
2022/07/26 10:57:24;;;;;;;9.05;2.03;;;20.00;99.90;;;;;;4998571;28;20466;-84
2022/07/26 10:59:49;;;;;;;7.78;2.00;;;20.10;99.90;;;;;;5001466;28;20073;-86
2022/07/26 11:02:20;;;;;;;7.97;2.05;;;20.10;99.90;;;;;;5004401;28;20042;-86
2022/07/26 11:04:46;;;;;;;11.00;1.60;;;20.30;99.90;;;;;;5005698;28;20129;-85
2022/07/26 11:07:12;;;;;;;9.10;1.67;;;20.30;99.90;;;;;;4997582;28;20493;-87
2022/07/26 11:09:38;;;;;;;7.63;1.83;;;20.40;99.90;;;;;;4997275;28;20051;-86
2022/07/26 11:12:20;;;;;;;8.57;1.83;;;20.70;99.90;;;;;;4985837;28;20038;-86
2022/07/26 11:14:46;;;;;;;5.65;1.50;;;20.60;99.90;;;;;;5010210;28;20102;-86
2022/07/26 11:17:30;;;;;;;13.75;2.03;;;20.40;99.90;;;;;;5019214;28;20034;-92
2022/07/26 11:19:56;;;;;;;5.32;1.65;;;20.40;99.90;;;;;;5015429;28;20058;-86
2022/07/26 11:22:35;;;;;;;7.30;1.75;;;20.30;99.90;;;;;;4998690;28;20100;-86
2022/07/26 11:25:02;;;;;;;6.22;1.70;;;20.30;99.90;;;;;;4980388;28;20039;-85
2022/07/26 11:27:27;;;;;;;5.53;1.33;;;20.80;99.90;;;;;;4995481;28;20038;-85
2022/07/26 11:29:53;;;;;;;4.63;1.40;;;20.90;99.90;;;;;;4995895;28;20046;-85
2022/07/26 11:32:23;;;;;;;7.72;1.55;;;20.90;99.90;;;;;;4995019;28;20050;-84
2022/07/26 11:35:03;;;;;;;7.20;1.33;;;21.40;99.90;;;;;;4996321;28;20117;-87
2022/07/26 11:37:28;;;;;;;5.28;1.35;;;21.80;99.90;;;;;;5011981;28;20042;-85
2022/07/26 11:39:54;;;;;;;7.57;1.60;;;21.00;99.90;;;;;;4996493;28;20092;-85
2022/07/26 11:42:20;;;;;;;6.53;1.58;;;21.00;99.90;;;;;;4979290;28;20414;-85
2022/07/26 11:44:49;;;;;;;5.47;1.35;;;20.30;99.90;;;;;;5015518;28;20034;-85
2022/07/26 11:47:20;;;;;;;4.00;1.15;;;21.30;99.90;;;;;;5029633;28;20045;-86
2022/07/26 11:49:46;;;;;;;6.10;1.38;;;21.20;99.90;;;;;;4995676;28;20042;-86
2022/07/26 11:52:12;;;;;;;9.93;1.45;;;21.20;99.90;;;;;;5011741;28;20094;-86
2022/07/26 11:54:50;;;;;;;5.88;1.45;;;21.20;99.90;;;;;;5014520;28;20098;-86
2022/07/26 11:57:17;;;;;;;5.43;1.30;;;21.30;99.90;;;;;;5002247;28;20099;-91
2022/07/26 11:59:43;;;;;;;7.63;1.30;;;21.10;99.90;;;;;;5018077;28;20082;-85
2022/07/26 12:02:09;;;;;;;4.60;1.42;;;21.30;99.90;;;;;;4996056;28;20061;-85
2022/07/26 12:04:39;;;;;;;5.03;1.33;;;21.40;99.90;;;;;;4987008;28;20039;-86
2022/07/26 12:07:16;;;;;;;5.85;1.30;;;21.40;99.90;;;;;;5010474;28;20046;-87
2022/07/26 12:09:46;;;;;;;7.47;1.50;;;21.10;99.90;;;;;;5011070;28;20038;-86
2022/07/26 12:12:23;;;;;;;5.68;1.10;;;21.30;99.90;;;;;;4977336;28;20061;-86
2022/07/26 12:15:05;;;;;;;5.70;1.00;;;21.40;99.90;;;;;;5008930;28;20050;-90
2022/07/26 12:17:31;;;;;;;4.40;1.23;;;21.10;99.90;;;;;;4993892;28;20116;-86
2022/07/26 12:20:16;;;;;;;4.05;1.25;;;21.10;99.90;;;;;;5008659;28;20057;-86
2022/07/26 12:22:54;;;;;;;3.58;1.20;;;21.40;99.90;;;;;;5000185;28;20046;-85
2022/07/26 12:25:27;;;;;;;6.00;1.52;;;21.20;99.90;;;;;;5002009;28;20125;-87
2022/07/26 12:27:52;;;;;;;2.90;1.00;;;21.10;99.90;;;;;;5007578;28;20038;-86
2022/07/26 12:30:18;;;;;;;5.85;1.02;;;21.20;99.90;;;;;;5009088;28;20122;-91
2022/07/26 12:32:44;;;;;;;3.42;0.82;;;20.90;99.90;;;;;;5006983;28;20062;-86
2022/07/26 12:35:12;;;;;;;4.82;0.85;;;20.90;99.90;;;;;;5009089;28;20050;-85
2022/07/26 12:37:47;;;;;;;4.47;1.05;;;20.80;99.90;;;;;;5010283;28;20026;-85
2022/07/26 12:40:17;;;;;;;6.70;1.00;;;21.20;99.90;;;;;;5017937;28;20038;-85
2022/07/26 12:42:50;;;;;;;3.60;0.73;;;20.80;99.90;;;;;;5012713;28;20073;-86
2022/07/26 12:45:20;;;;;;;4.43;1.00;;;21.10;99.90;;;;;;5006134;28;20057;-85
2022/07/26 12:47:48;;;;;;;5.68;1.10;;;21.10;99.90;;;;;;5004952;28;20446;-84